COYOTE (LAKE MENDOCINO) (COY)

Elevation: 720' · RUSSIAN R basin · Operator: US Army Corps of Engineers

Provisional data, subject to change.
Query executed Tuesday at 5:29:19   clock

Select a sensor type for a plot of data.
Note: Reservoir Flows are daily averages.

Earlier

Date RES ELE    STORAGE    RES CHG    TOC STO    ABV TOC    OUTFLOW    INFLOW    PPT INC    TEMP MN    TEMP MX    EVP PAN   
 FEET   AF   AF   AF   AF   CFS   CFS   INCHES   DEG F   DEG F   INCHES  
04/04/2016 748.19 86702 0 86370 332 127 136 0.00 10 22 0.19
04/05/2016 748.20 86720 18 86370 350 122 142 0.00 5 30 0.22
04/06/2016 748.19 86702 -18 86370 332 126 129 0.04 8 35 0.24
04/07/2016 748.18 86685 -17 86370 315 146 148 0.00 9 27 0.20
04/08/2016 748.16 86650 -35 86370 280 139 131 0.00 12 26 0.19
04/09/2016 748.15 86633 -17 86370 263 129 123 0.00 12 17 0.05
04/10/2016 748.15 86633 0 86370 263 129 132 0.01 12 17 0.07
04/11/2016 748.14 86615 -18 86370 245 128 127 0.03 12 23 0.15
04/12/2016 748.11 86563 -52 86370 193 139 117 0.00 9 17 0.08
04/13/2016 748.09 86528 -35 86370 158 138 130 0.24 7 21 0.19
04/14/2016 748.05 86458 -70 86370 88 137 107 0.00 5 15 0.12
04/15/2016 748.02 86405 -53 86370 35 137 120 0.01 6 20 0.19
04/16/2016 748.02 86405 0 86370 35 140 152 0.06 5 30 0.23
04/17/2016 748.02 86405 0 86370 35 140 151 0.02 -23 31 0.22
04/18/2016 748.00 86371 -34 86370 1 156 149 0.00 -17 31 0.21
04/19/2016 747.98 86336 -35 86370 -34 162 155 0.00 8 30 0.22
04/20/2016 747.94 86266 -70 86370 -104 157 128 0.00 -22 20 0.12
04/21/2016 747.91 86213 -53 86370 -157 156 137 0.00 10 21 0.16
04/22/2016 747.95 86283 70 86370 -87 153 192 0.49 8 14 0.07
04/23/2016 747.96 86301 18 86370 -69 140 157 0.00 4 17 0.15
04/24/2016 747.94 86266 -35 86370 -104 146 136 0.01 8 17 0.17
04/25/2016 747.91 86213 -53 86370 -157 153 137 0.00 5 18 0.20
04/26/2016 747.88 86161 -52 86370 -209 154 136 0.00 4 20 0.17
04/27/2016 747.86 86126 -35 86370 -244 152 141 0.10 5 18 0.12
04/28/2016 747.84 86091 -35 86370 -279 153 147 0.06 7 23 0.22
04/29/2016 747.79 86004 -87 86370 -366 156 122 0.00 7 21 0.21
04/30/2016 747.76 85952 -52 86370 -418 159 146 0.02 5 26 0.25
05/01/2016 747.71 85864 -88 86370 -506 162 131 0.00 9 29 0.26
05/02/2016 747.68 85812 -52 86370 -- 162 148 0.00 7 26 0.24
05/03/2016 -- -- -- -- -- -- -- -- -- -- --

Later | Latest

Warning! This data is preliminary and subject to revision.

Show COY Map | Plot COY Data | 1 Month COY Data | Real-Time COY Data | COY Info